Terminal Aerodrome Forecast
Issued by NWS

Home | Current Version | Previous Version | Text Only | Print | Product List | Glossary On
Versions: 1 2 3 4 5 6 7 8 9 10 11 12 13
852
FTUS43 KPAH 180743 AAA
TAFCGI
TAF AMD
KCGI 180743Z 1808/1906 00000KT P6SM SCT025
      TEMPO 1808/1812 5SM BR BKN025
     FM181300 26004KT P6SM SCT050=

USA.gov is the U.S. government's official web portal to all federal, state and local government web resources and services.